createdAt,value
2023-01-20T00:00:12.695Z,100860.03
2023-01-20T00:00:44.685Z,100861.53
2023-01-20T00:01:16.299Z,100867.28
2023-01-20T00:01:48.269Z,100862.72
2023-01-20T00:02:20.104Z,100866.38
2023-01-20T00:02:51.709Z,100869.00
2023-01-20T00:03:23.301Z,100864.13
2023-01-20T00:03:55.859Z,100869.38
2023-01-20T00:04:27.490Z,100871.63
2023-01-20T00:04:59.058Z,100877.00
2023-01-20T00:05:30.644Z,100870.19
2023-01-20T00:06:02.613Z,100869.00
2023-01-20T00:06:34.139Z,100876.03
2023-01-20T00:07:08.739Z,100868.03
2023-01-20T00:07:40.302Z,100873.78
2023-01-20T00:08:11.808Z,100875.06
2023-01-20T00:08:43.476Z,100873.41
2023-01-20T00:09:16.925Z,100873.94
2023-01-20T00:09:48.495Z,100872.16
2023-01-20T00:10:20.138Z,100876.78
2023-01-20T00:10:51.691Z,100876.13
2023-01-20T00:11:23.630Z,100874.16
2023-01-20T00:11:55.188Z,100869.22
2023-01-20T00:12:26.703Z,100875.59
2023-01-20T00:12:58.256Z,100878.34
2023-01-20T00:13:34.154Z,100877.22
2023-01-20T00:14:05.713Z,100878.72
2023-01-20T00:14:37.266Z,100874.47
2023-01-20T00:15:10.240Z,100882.25
2023-01-20T00:15:41.930Z,100887.56
2023-01-20T00:16:14.053Z,100874.47
2023-01-20T00:16:45.604Z,100876.72
2023-01-20T00:17:17.363Z,100876.72
2023-01-20T00:17:48.972Z,100873.13
2023-01-20T00:18:20.540Z,100875.88
2023-01-20T00:18:52.173Z,100882.69
2023-01-20T00:19:24.079Z,100882.94
2023-01-20T00:19:55.595Z,100873.03
2023-01-20T00:20:27.145Z,100872.22
2023-01-20T00:21:06.178Z,100875.50
2023-01-20T00:21:37.701Z,100877.16
2023-01-20T00:22:09.431Z,100878.59
2023-01-20T00:22:42.453Z,100877.16
2023-01-20T00:23:14.050Z,100879.09
2023-01-20T00:23:47.177Z,100880.91
2023-01-20T00:24:18.779Z,100873.59
2023-01-20T00:24:50.345Z,100870.50
2023-01-20T00:25:21.910Z,100874.91
2023-01-20T00:25:53.434Z,100880.00
2023-01-20T00:26:25.162Z,100875.06
2023-01-20T00:26:56.764Z,100877.38
2023-01-20T00:27:28.499Z,100881.06
2023-01-20T00:28:00.311Z,100884.06
2023-01-20T00:28:31.936Z,100881.66
2023-01-20T00:29:03.505Z,100876.41
2023-01-20T00:29:35.058Z,100883.59
2023-01-20T00:30:07.423Z,100872.44
2023-01-20T00:30:39.009Z,100886.81
2023-01-20T00:31:15.770Z,100886.59
2023-01-20T00:31:47.452Z,100880.22
2023-01-20T00:32:19.031Z,100884.66
2023-01-20T00:32:50.662Z,100886.28
2023-01-20T00:33:22.473Z,100882.03
2023-01-20T00:33:55.959Z,100884.50
2023-01-20T00:34:27.608Z,100880.75
2023-01-20T00:34:59.134Z,100883.53
2023-01-20T00:35:30.723Z,100875.13
2023-01-20T00:36:02.267Z,100884.34
2023-01-20T00:36:34.052Z,100883.78
2023-01-20T00:37:05.776Z,100877.22
2023-01-20T00:37:37.860Z,100886.28
2023-01-20T00:38:09.949Z,100890.47
2023-01-20T00:38:41.695Z,100892.13
2023-01-20T00:39:13.244Z,100886.88
2023-01-20T00:39:44.778Z,100885.63
2023-01-20T00:40:16.596Z,100888.47
2023-01-20T00:40:53.948Z,100884.13
2023-01-20T00:41:25.573Z,100891.00
2023-01-20T00:41:57.088Z,100884.72
2023-01-20T00:42:28.618Z,100884.66
2023-01-20T00:43:00.142Z,100884.34
2023-01-20T00:43:32.656Z,100884.50
2023-01-20T00:44:04.209Z,100889.72
2023-01-20T00:44:35.722Z,100888.06
2023-01-20T00:45:07.950Z,100893.16
2023-01-20T00:45:40.920Z,100888.44
2023-01-20T00:46:13.200Z,100891.38
2023-01-20T00:46:45.124Z,100888.59
2023-01-20T00:47:16.696Z,100887.25
2023-01-20T00:47:48.356Z,100892.22
2023-01-20T00:48:19.997Z,100892.63
2023-01-20T00:48:51.579Z,100890.69
2023-01-20T00:49:23.156Z,100895.25
2023-01-20T00:49:55.259Z,100892.34
2023-01-20T00:50:26.797Z,100889.56
2023-01-20T00:50:58.567Z,100893.03
2023-01-20T00:51:30.138Z,100896.91
2023-01-20T00:52:03.081Z,100899.38
2023-01-20T00:52:34.814Z,100894.66
2023-01-20T00:53:06.339Z,100901.09
2023-01-20T00:53:37.955Z,100897.72
2023-01-20T00:54:09.594Z,100897.88
2023-01-20T00:54:41.114Z,100900.97
2023-01-20T00:55:12.969Z,100894.38
2023-01-20T00:55:44.745Z,100893.69
2023-01-20T00:56:16.281Z,100900.13
2023-01-20T00:56:48.086Z,100898.25
2023-01-20T00:57:19.593Z,100896.31
2023-01-20T00:57:51.135Z,100898.25
2023-01-20T00:58:22.721Z,100901.16
2023-01-20T00:58:55.361Z,100896.59
2023-01-20T00:59:26.949Z,100905.97
2023-01-20T00:59:58.451Z,100897.28
2023-01-20T01:00:30.224Z,100901.31
2023-01-20T01:01:02.308Z,100901.31
2023-01-20T01:01:36.768Z,100902.53
2023-01-20T01:02:08.508Z,100901.53
2023-01-20T01:02:40.225Z,100901.53
2023-01-20T01:03:12.027Z,100907.91
2023-01-20T01:03:44.342Z,100897.59
2023-01-20T01:04:15.948Z,100899.38
2023-01-20T01:04:50.988Z,100910.66
2023-01-20T01:05:23.085Z,100904.63
2023-01-20T01:05:54.695Z,100911.66
2023-01-20T01:06:26.239Z,100912.84
2023-01-20T01:06:57.794Z,100909.84
2023-01-20T01:07:29.492Z,100915.75
2023-01-20T01:08:02.366Z,100913.28
2023-01-20T01:08:36.896Z,100907.00
2023-01-20T01:09:08.651Z,100919.78
2023-01-20T01:09:40.173Z,100923.38
2023-01-20T01:10:12.053Z,100918.53
2023-01-20T01:10:43.604Z,100917.25
2023-01-20T01:11:15.162Z,100922.78
2023-01-20T01:11:46.698Z,100916.00
2023-01-20T01:12:18.243Z,100920.94
2023-01-20T01:12:49.809Z,100918.31
2023-01-20T01:13:21.300Z,100923.56
2023-01-20T01:13:55.640Z,100922.44
2023-01-20T01:14:27.171Z,100927.97
2023-01-20T01:14:58.699Z,100922.50
2023-01-20T01:15:30.369Z,100927.06
2023-01-20T01:16:01.990Z,100932.59
2023-01-20T01:16:33.613Z,100926.09
2023-01-20T01:17:05.314Z,100923.91
2023-01-20T01:17:37.121Z,100931.31
2023-01-20T01:18:08.715Z,100929.00
2023-01-20T01:18:40.978Z,100933.28
2023-01-20T01:19:12.510Z,100934.78
2023-01-20T01:19:44.021Z,100925.25
2023-01-20T01:20:15.635Z,100935.75
2023-01-20T01:20:47.163Z,100941.81
2023-01-20T01:21:18.786Z,100939.09
2023-01-20T01:21:50.357Z,100935.50
2023-01-20T01:22:22.074Z,100938.34
2023-01-20T01:22:53.824Z,100937.53
2023-01-20T01:23:25.368Z,100937.97
2023-01-20T01:23:56.886Z,100934.78
2023-01-20T01:24:28.410Z,100941.00
2023-01-20T01:24:59.914Z,100943.22
2023-01-20T01:25:31.452Z,100945.69
2023-01-20T01:26:03.289Z,100945.00
2023-01-20T01:26:34.955Z,100948.31
2023-01-20T01:27:08.512Z,100940.16
2023-01-20T01:27:40.094Z,100943.44
2023-01-20T01:28:11.763Z,100952.56
2023-01-20T01:28:43.447Z,100951.31
2023-01-20T01:29:14.957Z,100946.50
2023-01-20T01:29:46.472Z,100953.63
2023-01-20T01:30:18.128Z,100952.13
2023-01-20T01:30:49.882Z,100954.97
2023-01-20T01:31:24.163Z,100944.50
2023-01-20T01:31:55.691Z,100950.34
2023-01-20T01:32:27.751Z,100955.88
2023-01-20T01:32:59.677Z,100958.56
2023-01-20T01:33:31.290Z,100954.84
2023-01-20T01:34:03.012Z,100961.78
2023-01-20T01:34:34.935Z,100963.00
2023-01-20T01:35:06.885Z,100963.97
2023-01-20T01:35:38.396Z,100960.81
2023-01-20T01:36:13.922Z,100962.75
2023-01-20T01:36:45.643Z,100963.44
2023-01-20T01:37:18.229Z,100961.78
2023-01-20T01:37:49.767Z,100968.66
2023-01-20T01:38:21.363Z,100968.53
2023-01-20T01:38:58.171Z,100969.63
2023-01-20T01:39:30.825Z,100957.22
2023-01-20T01:40:02.348Z,100961.94
2023-01-20T01:40:34.401Z,100957.06
2023-01-20T01:41:06.315Z,100961.88
2023-01-20T01:41:37.835Z,100959.34
2023-01-20T01:42:24.333Z,100959.34
2023-01-20T01:42:55.880Z,100961.56
2023-01-20T01:43:30.646Z,100955.50
2023-01-20T01:44:09.351Z,100966.44
2023-01-20T01:45:12.116Z,100964.78
2023-01-20T01:45:44.048Z,100966.81
2023-01-20T01:46:15.794Z,100965.16
2023-01-20T01:46:47.378Z,100963.00
2023-01-20T01:47:18.916Z,100961.94
2023-01-20T01:48:02.313Z,100966.56
2023-01-20T01:48:37.524Z,100973.47
2023-01-20T01:49:21.308Z,100962.31
2023-01-20T01:49:52.859Z,100960.81
2023-01-20T01:50:28.347Z,100965.66
2023-01-20T01:51:03.684Z,100970.75
2023-01-20T01:51:42.342Z,100966.94
2023-01-20T01:52:13.874Z,100976.22
2023-01-20T01:52:48.749Z,100968.09
2023-01-20T01:53:21.156Z,100968.75
2023-01-20T01:54:00.662Z,100968.38
2023-01-20T01:54:41.649Z,100971.00
2023-01-20T01:55:14.022Z,100976.13
2023-01-20T01:55:51.081Z,100972.84
2023-01-20T01:56:26.485Z,100968.53
2023-01-20T01:56:58.088Z,100979.81
2023-01-20T01:57:33.416Z,100974.06
2023-01-20T01:58:06.998Z,100975.47
2023-01-20T01:58:41.904Z,100979.59
2023-01-20T01:59:14.082Z,100977.50
2023-01-20T01:59:45.696Z,100973.22
2023-01-20T02:00:17.880Z,100976.22
2023-01-20T02:00:49.675Z,100976.09
2023-01-20T02:01:21.331Z,100975.41
2023-01-20T02:01:53.897Z,100978.16
2023-01-20T02:02:25.641Z,100984.69
2023-01-20T02:02:57.478Z,100978.47
2023-01-20T02:03:33.676Z,100983.25
2023-01-20T02:04:10.204Z,100985.19
2023-01-20T02:04:42.816Z,100980.66
2023-01-20T02:05:15.710Z,100986.41
2023-01-20T02:05:49.697Z,100995.53
2023-01-20T02:06:23.164Z,100983.41
2023-01-20T02:06:59.272Z,100984.38
2023-01-20T02:07:32.495Z,100983.41
2023-01-20T02:08:04.453Z,100986.03
2023-01-20T02:08:37.655Z,100984.00
2023-01-20T02:09:09.238Z,100985.63
2023-01-20T02:09:40.833Z,100972.69
2023-01-20T02:10:13.701Z,100978.16
2023-01-20T02:10:45.513Z,100977.28
2023-01-20T02:11:17.123Z,100977.28
2023-01-20T02:11:52.356Z,100977.28
2023-01-20T02:12:24.000Z,100983.94
2023-01-20T02:12:55.681Z,100983.13
2023-01-20T02:13:27.380Z,100981.19
2023-01-20T02:13:59.408Z,100984.63
2023-01-20T02:14:34.738Z,100977.88
2023-01-20T02:15:07.410Z,100980.13
2023-01-20T02:16:12.561Z,100983.41
2023-01-20T02:16:50.046Z,100988.34
2023-01-20T02:17:36.251Z,100988.34
2023-01-20T02:18:16.988Z,100981.47
2023-01-20T02:18:55.383Z,100981.47
2023-01-20T02:19:36.017Z,100981.47
2023-01-20T02:20:28.338Z,100983.25
2023-01-20T02:21:33.513Z,100981.75
2023-01-20T02:22:07.756Z,100976.81
2023-01-20T02:22:46.487Z,100985.34
2023-01-20T02:23:33.196Z,100980.13
2023-01-20T02:24:14.107Z,100987.53
2023-01-20T02:25:04.426Z,100984.47
2023-01-20T02:25:38.970Z,100984.84
2023-01-20T02:26:13.337Z,100978.59
2023-01-20T02:26:47.766Z,100983.41
2023-01-20T02:27:38.302Z,100987.28
2023-01-20T02:28:42.304Z,100985.59
2023-01-20T02:29:24.877Z,100986.72
2023-01-20T02:30:05.350Z,100982.22
2023-01-20T02:31:21.616Z,100988.94
2023-01-20T02:32:11.463Z,100984.75
2023-01-20T02:32:48.614Z,100995.53
2023-01-20T02:33:25.501Z,100992.25
2023-01-20T02:34:18.219Z,100987.00
2023-01-20T02:34:59.065Z,100986.31
2023-01-20T02:35:55.059Z,100986.84
2023-01-20T02:36:32.274Z,100990.00
2023-01-20T02:37:11.077Z,100985.06
2023-01-20T02:38:05.241Z,100988.66
2023-01-20T02:38:48.874Z,100987.69
2023-01-20T02:39:27.960Z,100985.06
2023-01-20T02:40:10.210Z,100985.06
2023-01-20T02:41:02.906Z,100983.41
2023-01-20T02:41:40.078Z,100987.97
2023-01-20T02:42:16.155Z,100991.41
2023-01-20T02:43:17.067Z,100979.75
2023-01-20T02:44:04.314Z,100985.72
2023-01-20T02:44:43.365Z,100988.66
2023-01-20T02:46:10.460Z,100987.81
2023-01-20T02:47:00.095Z,100987.47
2023-01-20T02:47:34.981Z,100991.34
2023-01-20T02:48:25.211Z,100998.16
2023-01-20T02:49:16.455Z,100995.09
2023-01-20T02:49:54.555Z,100992.34
2023-01-20T02:50:31.858Z,100989.84
2023-01-20T02:51:10.742Z,100992.25
2023-01-20T02:52:01.173Z,100999.41
2023-01-20T02:52:36.728Z,100996.50
2023-01-20T02:53:09.412Z,100990.69
2023-01-20T02:53:47.785Z,100990.88
2023-01-20T02:54:20.687Z,100990.72
2023-01-20T02:54:54.115Z,100993.22
2023-01-20T02:55:32.676Z,100996.34
2023-01-20T02:56:04.889Z,100991.13
2023-01-20T02:56:36.889Z,101000.78
2023-01-20T02:57:11.655Z,101000.19
2023-01-20T02:57:54.604Z,100992.47
2023-01-20T02:58:33.999Z,100988.22
2023-01-20T02:59:08.960Z,100994.72
2023-01-20T02:59:43.905Z,100998.84
2023-01-20T03:00:22.375Z,100992.78
2023-01-20T03:00:56.655Z,101001.00
2023-01-20T03:01:33.604Z,100996.97
2023-01-20T03:02:17.726Z,100993.31
2023-01-20T03:02:51.852Z,100994.41
2023-01-20T03:03:26.662Z,101002.13
2023-01-20T03:03:59.862Z,100994.28
2023-01-20T03:04:38.950Z,100998.53
2023-01-20T03:05:14.942Z,101001.84
2023-01-20T03:05:50.926Z,100994.94
2023-01-20T03:06:25.335Z,100999.50
2023-01-20T03:06:58.529Z,100996.16
2023-01-20T03:07:31.532Z,101005.44
2023-01-20T03:08:05.759Z,101002.66
2023-01-20T03:08:40.399Z,100995.47
2023-01-20T03:09:14.370Z,101003.88
2023-01-20T03:09:48.418Z,100997.41
2023-01-20T03:10:23.069Z,101002.94
2023-01-20T03:10:55.132Z,101005.72
2023-01-20T03:11:27.626Z,100998.91
2023-01-20T03:12:04.347Z,101000.97
2023-01-20T03:12:50.388Z,100999.59
2023-01-20T03:13:40.090Z,100995.34
2023-01-20T03:14:14.092Z,101002.66
2023-01-20T03:14:45.652Z,101002.13
2023-01-20T03:15:20.688Z,101005.13
2023-01-20T03:15:56.850Z,100999.13
2023-01-20T03:16:28.931Z,100997.72
2023-01-20T03:17:02.001Z,100993.31
2023-01-20T03:17:33.820Z,100998.84
2023-01-20T03:18:05.541Z,100996.06
2023-01-20T03:18:37.973Z,101007.38
2023-01-20T03:19:10.607Z,101005.19
2023-01-20T03:19:43.077Z,101000.47
2023-01-20T03:20:15.192Z,101001.00
2023-01-20T03:20:47.042Z,101007.66
2023-01-20T03:21:19.358Z,101002.41
2023-01-20T03:21:51.017Z,100999.91
2023-01-20T03:22:22.616Z,100999.34
2023-01-20T03:22:54.221Z,101006.09
2023-01-20T03:23:26.911Z,100995.53
2023-01-20T03:24:01.325Z,101000.56
2023-01-20T03:24:33.468Z,100999.34
2023-01-20T03:25:05.617Z,101004.84
2023-01-20T03:25:39.093Z,101001.53
2023-01-20T03:26:13.583Z,101001.25
2023-01-20T03:26:46.124Z,101000.44
2023-01-20T03:27:17.642Z,100993.81
2023-01-20T03:27:49.273Z,101000.56
2023-01-20T03:28:20.854Z,100998.63
2023-01-20T03:28:54.527Z,101000.44
2023-01-20T03:29:26.189Z,101001.25
2023-01-20T03:29:57.743Z,100998.09
2023-01-20T03:30:29.445Z,101008.44
2023-01-20T03:31:02.101Z,100998.91
2023-01-20T03:31:39.654Z,100995.47
2023-01-20T03:32:11.763Z,101001.00
2023-01-20T03:32:45.999Z,101000.56
2023-01-20T03:33:17.808Z,101001.25
2023-01-20T03:33:51.292Z,101006.75
2023-01-20T03:34:25.488Z,101009.81
2023-01-20T03:34:57.247Z,101007.59
2023-01-20T03:35:29.077Z,101011.47
2023-01-20T03:36:00.638Z,101006.50
2023-01-20T03:36:33.021Z,101010.63
2023-01-20T03:37:05.329Z,101012.31
2023-01-20T03:37:36.963Z,101011.50
2023-01-20T03:38:10.067Z,101012.84
2023-01-20T03:38:43.159Z,101011.50
2023-01-20T03:39:14.981Z,101018.91
2023-01-20T03:39:46.547Z,101011.19
2023-01-20T03:40:18.224Z,101011.50
2023-01-20T03:41:22.034Z,101022.50
2023-01-20T03:42:08.387Z,101015.16
2023-01-20T03:43:03.083Z,101018.63
2023-01-20T03:43:47.207Z,101018.81
2023-01-20T03:44:38.384Z,101021.66
2023-01-20T03:45:21.171Z,101022.50
2023-01-20T03:46:01.664Z,101016.44
2023-01-20T03:46:42.648Z,101019.78
2023-01-20T03:47:14.087Z,101015.91
2023-01-20T03:48:09.132Z,101014.63
2023-01-20T03:48:47.435Z,101014.94
2023-01-20T03:49:31.077Z,101018.09
2023-01-20T03:50:17.791Z,101018.53
2023-01-20T03:50:52.004Z,101023.03
2023-01-20T03:51:35.075Z,101018.09
2023-01-20T03:52:15.925Z,101015.59
2023-01-20T03:52:55.981Z,101014.78
2023-01-20T03:53:37.473Z,101013.81
2023-01-20T03:54:11.999Z,101017.13
2023-01-20T03:54:53.713Z,101011.59
2023-01-20T03:55:38.652Z,101017.94
2023-01-20T03:56:21.647Z,101014.09
2023-01-20T03:57:04.324Z,101010.91
2023-01-20T03:57:40.934Z,101020.69
2023-01-20T03:58:16.649Z,101016.13
2023-01-20T03:58:51.982Z,101017.78
2023-01-20T03:59:23.761Z,101024.41
2023-01-20T03:59:55.698Z,101018.34
2023-01-20T04:00:29.574Z,101022.19
2023-01-20T04:01:17.791Z,101016.97
2023-01-20T04:01:51.855Z,101018.75
2023-01-20T04:02:24.057Z,101013.66
2023-01-20T04:02:55.785Z,101014.47
2023-01-20T04:03:30.343Z,101024.41
2023-01-20T04:04:03.217Z,101012.69
2023-01-20T04:04:37.554Z,101005.13
2023-01-20T04:05:10.235Z,101018.91
2023-01-20T04:05:42.584Z,101018.88
2023-01-20T04:06:16.623Z,101015.88
2023-01-20T04:06:49.404Z,101017.25
2023-01-20T04:07:25.119Z,101012.59
2023-01-20T04:07:58.275Z,101013.72
2023-01-20T04:08:34.318Z,101012.91
2023-01-20T04:09:08.900Z,101013.00
2023-01-20T04:09:43.460Z,101016.28
2023-01-20T04:10:16.153Z,101015.16
2023-01-20T04:10:48.844Z,101019.19
2023-01-20T04:11:20.789Z,101012.75
2023-01-20T04:11:55.170Z,101012.59
2023-01-20T04:12:26.780Z,101017.84
2023-01-20T04:12:58.370Z,101022.09
2023-01-20T04:13:30.159Z,101018.81
2023-01-20T04:14:02.416Z,101022.09
2023-01-20T04:14:37.025Z,101023.09
2023-01-20T04:15:09.392Z,101024.44
2023-01-20T04:15:46.294Z,101018.53
2023-01-20T04:16:19.304Z,101024.44
2023-01-20T04:16:53.142Z,101022.78
2023-01-20T04:17:28.373Z,101020.16
2023-01-20T04:18:14.170Z,101017.56
2023-01-20T04:18:48.309Z,101027.06
2023-01-20T04:19:19.847Z,101029.97
2023-01-20T04:19:51.373Z,101028.31
2023-01-20T04:20:24.466Z,101030.47
2023-01-20T04:21:03.118Z,101027.19
2023-01-20T04:21:38.697Z,101027.13
2023-01-20T04:22:22.303Z,101032.13
2023-01-20T04:22:57.307Z,101034.06
2023-01-20T04:23:34.564Z,101032.69
2023-01-20T04:24:23.112Z,101037.78
2023-01-20T04:25:01.766Z,101029.38
2023-01-20T04:25:33.611Z,101039.88
2023-01-20T04:26:05.341Z,101042.31
2023-01-20T04:26:36.848Z,101039.31
2023-01-20T04:27:08.401Z,101040.00
2023-01-20T04:27:39.954Z,101041.13
2023-01-20T04:28:11.573Z,101047.63
2023-01-20T04:28:43.214Z,101039.63
2023-01-20T04:29:14.750Z,101045.78
2023-01-20T04:29:47.147Z,101045.94
2023-01-20T04:30:19.088Z,101045.41
2023-01-20T04:30:50.846Z,101044.31
2023-01-20T04:31:30.668Z,101044.28
2023-01-20T04:32:03.864Z,101040.97
2023-01-20T04:32:35.473Z,101042.91
2023-01-20T04:33:07.027Z,101046.22
2023-01-20T04:33:38.891Z,101051.22
2023-01-20T04:34:13.040Z,101049.16
2023-01-20T04:34:44.753Z,101041.03
2023-01-20T04:35:19.860Z,101044.31
2023-01-20T04:35:51.515Z,101048.59
2023-01-20T04:36:23.347Z,101056.41
2023-01-20T04:36:54.931Z,101050.34
2023-01-20T04:37:26.520Z,101046.50
2023-01-20T04:37:58.029Z,101052.47
2023-01-20T04:38:29.520Z,101052.19
2023-01-20T04:39:01.186Z,101053.97
2023-01-20T04:39:32.746Z,101044.84
2023-01-20T04:40:04.627Z,101051.78
2023-01-20T04:40:36.182Z,101049.75
2023-01-20T04:41:10.019Z,101058.38
2023-01-20T04:41:41.624Z,101050.13
2023-01-20T04:42:13.197Z,101054.81
2023-01-20T04:42:44.726Z,101048.50
2023-01-20T04:43:16.842Z,101053.44
2023-01-20T04:43:48.589Z,101049.56
2023-01-20T04:44:20.129Z,101053.72
2023-01-20T04:44:51.711Z,101052.78
2023-01-20T04:45:23.380Z,101062.84
2023-01-20T04:45:55.122Z,101053.72
2023-01-20T04:46:26.779Z,101056.63
2023-01-20T04:46:59.413Z,101059.22
2023-01-20T04:47:31.959Z,101056.22
2023-01-20T04:48:07.577Z,101056.75
2023-01-20T04:48:39.196Z,101049.31
2023-01-20T04:49:14.037Z,101051.25
2023-01-20T04:49:45.622Z,101050.13
2023-01-20T04:50:17.392Z,101054.16
2023-01-20T04:50:48.899Z,101056.50
2023-01-20T04:51:20.540Z,101052.63
2023-01-20T04:51:52.072Z,101053.28
2023-01-20T04:52:23.697Z,101047.91
2023-01-20T04:52:55.902Z,101054.84
2023-01-20T04:53:27.403Z,101046.31
2023-01-20T04:53:59.851Z,101051.09
2023-01-20T04:54:31.492Z,101051.25
2023-01-20T04:55:04.048Z,101053.44
2023-01-20T04:55:36.315Z,101053.72
2023-01-20T04:56:12.966Z,101053.19
2023-01-20T04:56:44.666Z,101058.28
2023-01-20T04:57:16.211Z,101058.38
2023-01-20T04:57:48.213Z,101058.97
2023-01-20T04:58:19.777Z,101058.00
2023-01-20T04:58:51.351Z,101059.78
2023-01-20T04:59:22.931Z,101060.47
2023-01-20T04:59:54.467Z,101062.25
2023-01-20T05:00:26.259Z,101070.13
2023-01-20T05:01:01.933Z,101067.78
2023-01-20T05:01:33.655Z,101062.94
2023-01-20T05:02:05.361Z,101068.63
2023-01-20T05:02:36.923Z,101070.25
2023-01-20T05:03:08.686Z,101073.44
2023-01-20T05:03:42.524Z,101064.44
2023-01-20T05:04:14.052Z,101080.69
2023-01-20T05:04:45.715Z,101075.19
2023-01-20T05:05:17.681Z,101073.78
2023-01-20T05:05:55.294Z,101076.97
2023-01-20T05:06:27.054Z,101073.81
2023-01-20T05:06:58.574Z,101077.13
2023-01-20T05:07:30.091Z,101075.47
2023-01-20T05:08:01.752Z,101072.03
2023-01-20T05:08:33.613Z,101078.81
2023-01-20T05:09:05.619Z,101075.22
2023-01-20T05:09:37.555Z,101073.56
2023-01-20T05:10:09.979Z,101074.94
2023-01-20T05:10:41.539Z,101084.03
2023-01-20T05:11:13.045Z,101074.09
2023-01-20T05:11:44.575Z,101077.78
2023-01-20T05:12:16.109Z,101074.34
2023-01-20T05:12:47.704Z,101085.94
2023-01-20T05:13:19.318Z,101084.16
2023-01-20T05:13:51.153Z,101078.59
2023-01-20T05:14:22.671Z,101081.25
2023-01-20T05:14:54.223Z,101080.41
2023-01-20T05:15:25.822Z,101085.66
2023-01-20T05:15:57.406Z,101085.94
2023-01-20T05:16:32.134Z,101081.00
2023-01-20T05:17:03.736Z,101078.75
2023-01-20T05:17:35.297Z,101077.41
2023-01-20T05:18:06.864Z,101076.88
2023-01-20T05:18:38.368Z,101085.97
2023-01-20T05:19:12.080Z,101085.94
2023-01-20T05:19:43.721Z,101085.25
2023-01-20T05:20:15.588Z,101090.59
2023-01-20T05:20:48.613Z,101080.41
2023-01-20T05:21:20.132Z,101084.81
2023-01-20T05:21:51.684Z,101091.72
2023-01-20T05:22:24.074Z,101082.44
2023-01-20T05:22:55.912Z,101082.22
2023-01-20T05:23:27.563Z,101082.22
2023-01-20T05:23:59.136Z,101084.00
2023-01-20T05:24:30.879Z,101084.81
2023-01-20T05:25:02.365Z,101082.34
2023-01-20T05:25:33.867Z,101076.53
2023-01-20T05:26:06.276Z,101084.09
2023-01-20T05:26:37.807Z,101084.53
2023-01-20T05:27:09.542Z,101086.03
2023-01-20T05:27:41.245Z,101073.81
2023-01-20T05:28:12.769Z,101082.41
2023-01-20T05:28:44.857Z,101080.59
2023-01-20T05:29:16.367Z,101084.88
2023-01-20T05:29:47.908Z,101082.94
2023-01-20T05:30:20.054Z,101081.00
2023-01-20T05:30:52.082Z,101074.94
2023-01-20T05:31:23.885Z,101084.56
2023-01-20T05:31:55.816Z,101084.88
2023-01-20T05:32:27.568Z,101079.63
2023-01-20T05:32:59.123Z,101081.84
2023-01-20T05:33:30.631Z,101080.41
2023-01-20T05:34:02.550Z,101079.34
2023-01-20T05:34:34.130Z,101082.94
2023-01-20T05:35:06.139Z,101081.72
2023-01-20T05:35:38.458Z,101082.69
2023-01-20T05:36:11.101Z,101083.50
2023-01-20T05:36:42.634Z,101086.81
2023-01-20T05:37:17.362Z,101090.41
2023-01-20T05:37:48.979Z,101087.63
2023-01-20T05:38:20.498Z,101084.88
2023-01-20T05:38:52.025Z,101088.75
2023-01-20T05:39:23.768Z,101089.84
2023-01-20T05:39:55.630Z,101089.56
2023-01-20T05:40:27.229Z,101086.13
2023-01-20T05:41:00.793Z,101085.28
2023-01-20T05:41:32.383Z,101086.81
2023-01-20T05:42:04.062Z,101084.19
2023-01-20T05:42:35.700Z,101081.16
2023-01-20T05:43:07.250Z,101082.81
2023-01-20T05:43:38.787Z,101082.41
2023-01-20T05:44:10.301Z,101089.56
2023-01-20T05:44:41.918Z,101087.38
2023-01-20T05:45:13.971Z,101087.38
2023-01-20T05:45:46.761Z,101085.00
2023-01-20T05:46:18.469Z,101093.00
2023-01-20T05:46:50.031Z,101089.03
2023-01-20T05:47:21.622Z,101090.41
2023-01-20T05:47:57.895Z,101085.16
2023-01-20T05:48:29.455Z,101090.97
2023-01-20T05:49:03.030Z,101088.75
2023-01-20T05:49:34.667Z,101088.75
2023-01-20T05:50:06.665Z,101088.06
2023-01-20T05:50:38.426Z,101089.03
2023-01-20T05:51:12.737Z,101090.97
2023-01-20T05:51:44.280Z,101089.28
2023-01-20T05:52:15.896Z,101087.63
2023-01-20T05:52:49.496Z,101091.78
2023-01-20T05:53:21.069Z,101092.31
2023-01-20T05:53:52.577Z,101089.03
2023-01-20T05:54:24.100Z,101092.16
2023-01-20T05:54:58.017Z,101091.91
2023-01-20T05:55:29.708Z,101091.19
2023-01-20T05:56:03.049Z,101090.09
2023-01-20T05:56:34.862Z,101092.19
2023-01-20T05:57:06.455Z,101093.97
2023-01-20T05:57:38.070Z,101097.72
2023-01-20T05:58:09.741Z,101098.53
2023-01-20T05:58:41.669Z,101093.31
2023-01-20T05:59:13.201Z,101092.31
2023-01-20T05:59:47.805Z,101095.22
2023-01-20T06:00:19.892Z,101097.84
2023-01-20T06:00:51.457Z,101090.91
2023-01-20T06:01:23.310Z,101095.31
2023-01-20T06:01:55.577Z,101096.13
2023-01-20T06:02:33.283Z,101097.00
2023-01-20T06:03:04.989Z,101097.28
2023-01-20T06:03:37.047Z,101105.00
2023-01-20T06:04:08.690Z,101103.09
2023-01-20T06:04:40.301Z,101099.22
2023-01-20T06:05:12.150Z,101096.06
2023-01-20T06:05:43.757Z,101098.38
2023-01-20T06:06:17.239Z,101097.28
2023-01-20T06:06:48.768Z,101095.06
2023-01-20T06:07:20.312Z,101100.03
2023-01-20T06:07:52.086Z,101100.59
2023-01-20T06:08:23.658Z,101103.09
2023-01-20T06:08:55.258Z,101106.09
2023-01-20T06:09:26.783Z,101111.06
2023-01-20T06:09:58.694Z,101104.44
2023-01-20T06:10:30.275Z,101107.22
2023-01-20T06:11:02.403Z,101109.56
2023-01-20T06:11:33.993Z,101108.31
2023-01-20T06:12:05.810Z,101104.88
2023-01-20T06:12:37.719Z,101103.34
2023-01-20T06:13:10.263Z,101108.59
2023-01-20T06:13:41.834Z,101105.00
2023-01-20T06:14:13.384Z,101106.69
2023-01-20T06:14:45.112Z,101098.97
2023-01-20T06:15:16.923Z,101101.69
2023-01-20T06:15:55.314Z,101107.06
2023-01-20T06:16:26.903Z,101101.16
2023-01-20T06:16:58.516Z,101101.16
2023-01-20T06:17:30.056Z,101098.38
2023-01-20T06:18:01.634Z,101105.28
2023-01-20T06:18:33.904Z,101105.28
2023-01-20T06:19:05.484Z,101107.47
2023-01-20T06:19:37.267Z,101097.97
2023-01-20T06:20:10.661Z,101105.41
2023-01-20T06:20:42.287Z,101101.84
2023-01-20T06:21:13.909Z,101105.00
2023-01-20T06:21:47.324Z,101101.16
2023-01-20T06:22:20.999Z,101105.25
2023-01-20T06:22:56.078Z,101105.28
2023-01-20T06:23:27.724Z,101104.75
2023-01-20T06:23:59.275Z,101097.13
2023-01-20T06:24:30.795Z,101106.13
2023-01-20T06:25:02.719Z,101100.88
2023-01-20T06:25:34.337Z,101104.06
2023-01-20T06:26:08.261Z,101104.44
2023-01-20T06:26:39.801Z,101103.50
2023-01-20T06:27:13.605Z,101104.47
2023-01-20T06:27:45.320Z,101105.56
2023-01-20T06:28:16.799Z,101107.22
2023-01-20T06:28:51.176Z,101101.44
2023-01-20T06:29:22.693Z,101102.84